»·PEaware :: SWA759 KLAX-KPHX

SWA759 :: KLAX-KPHX

FLIGHT INFORMATION

Flight Status: Arrived
Operator:
Southwest Airlines
More flights by this operator :: More flights under this callsign
Pilot: Nicholas R. (19074)
Aircraft: BOEING 737-700
(B737)
More flights by this aircraft type
Origin: KLAX Los Angeles Intl
United States
Destination: KPHX Phoenix Sky Harbor Intl
United States
More flights between these airports :: More routes between these airports
Route: +DOTSS2 CNERY BLH HYDRR1
File this flight plan on PilotEdge
Remarks:
Altitude:
(Current/Filed)
300ft
Speed:
(Current/Filed)
290kts
Departed: 30-Apr-18 05:08 PM
Arrived: 30-Apr-18 06:19 PM
Distance/Time
Traveled:
321nm/1:11
Distance/Time
To Go:
Arrived

Flight Plot

Page will automatically refresh every two minutes.

Flight plan parsing failed; only flown route is shown


Map Options




Map Legend


Flown Route
Filed Route
Departure Airport
Arrival Airport
Navaid (VOR, NDB)
Fix

Horizontal Profiles

Position Reports

Time Latitude Longitude Heading Altitude Ground
Speed
30-Apr-18 16:27 33.939517 -118.408771 332 134ft 0kts
30-Apr-18 16:28 33.939517 -118.408771 332 134ft 0kts
30-Apr-18 16:29 33.939517 -118.408771 332 134ft 0kts
30-Apr-18 16:30 33.939517 -118.408771 332 134ft 0kts
30-Apr-18 16:31 33.939517 -118.408771 332 134ft 0kts
30-Apr-18 16:32 33.939517 -118.408771 332 134ft 0kts
30-Apr-18 16:33 33.939517 -118.408771 332 134ft 0kts
30-Apr-18 16:34 33.939517 -118.408771 332 134ft 0kts
30-Apr-18 16:35 33.939517 -118.408771 332 134ft 0kts
30-Apr-18 16:36 33.939517 -118.408771 332 134ft 0kts
30-Apr-18 16:37 33.939517 -118.408771 332 134ft 0kts
30-Apr-18 16:38 33.939517 -118.408771 332 134ft 0kts
30-Apr-18 16:39 33.939517 -118.408771 332 134ft 0kts
30-Apr-18 16:40 33.939517 -118.408771 332 134ft 0kts
30-Apr-18 16:41 33.939517 -118.408771 332 134ft 0kts
30-Apr-18 16:42 33.939517 -118.408771 332 134ft 0kts
30-Apr-18 16:43 33.939517 -118.408771 332 134ft 0kts
30-Apr-18 16:44 33.939517 -118.408771 332 134ft 0kts
30-Apr-18 16:45 33.939517 -118.408771 332 134ft 0kts
30-Apr-18 16:46 33.939517 -118.408771 332 134ft 0kts
30-Apr-18 16:47 33.939517 -118.408771 332 134ft 0kts
30-Apr-18 16:48 33.939517 -118.408771 332 134ft 0kts
30-Apr-18 16:49 33.939517 -118.408771 332 134ft 0kts
30-Apr-18 16:50 33.939517 -118.408771 332 134ft 0kts
30-Apr-18 16:51 33.939517 -118.408771 332 134ft 0kts
30-Apr-18 16:52 33.939517 -118.408771 332 134ft 0kts
30-Apr-18 16:53 33.939233 -118.408594 332 134ft 2kts
30-Apr-18 16:54 33.938676 -118.408614 31 134ft 0kts
30-Apr-18 16:55 33.938677 -118.408613 31 134ft 0kts
30-Apr-18 16:56 33.938718 -118.408569 47 134ft 3kts
30-Apr-18 16:58 33.938179 -118.406437 82 134ft 20kts
30-Apr-18 16:59 33.938687 -118.401355 82 134ft 8kts
30-Apr-18 17:00 33.939402 -118.394684 84 134ft 25kts
30-Apr-18 17:01 33.940040 -118.388025 82 134ft 17kts
30-Apr-18 17:02 33.940195 -118.383273 176 134ft 2kts
30-Apr-18 17:03 33.940179 -118.383272 176 134ft 0kts
30-Apr-18 17:04 33.939031 -118.383206 177 134ft 12kts
30-Apr-18 17:05 33.938395 -118.383167 176 134ft 0kts
30-Apr-18 17:06 33.938395 -118.383167 176 134ft 0kts
30-Apr-18 17:07 33.937440 -118.384373 262 134ft 18kts
30-Apr-18 17:08 33.933542 -118.429469 265 1623ft 191kts
30-Apr-18 17:09 33.935591 -118.490166 279 5448ft 176kts
30-Apr-18 17:10 33.948457 -118.551687 290 8289ft 193kts
30-Apr-18 17:11 33.966704 -118.612793 252 10821ft 235kts
30-Apr-18 17:12 33.897644 -118.616313 147 12978ft 361kts
30-Apr-18 17:13 33.808463 -118.547167 170 12978ft 372kts
30-Apr-18 17:14 33.710244 -118.514628 146 12973ft 381kts
30-Apr-18 17:15 33.660341 -118.398042 109 15916ft 415kts
30-Apr-18 17:16 33.642412 -118.258880 88 16906ft 427kts
30-Apr-18 17:17 33.644449 -118.116049 88 16901ft 427kts
30-Apr-18 17:17 33.644650 -117.995341 89 18972ft 444kts
30-Apr-18 17:18 33.644203 -117.842328 90 21703ft 470kts
30-Apr-18 17:19 33.618093 -117.685715 108 22991ft 485kts
30-Apr-18 17:21 33.572640 -117.504579 108 24112ft 494kts
30-Apr-18 17:22 33.532559 -117.344028 108 26353ft 510kts
30-Apr-18 17:23 33.501949 -117.176070 94 28253ft 527kts
30-Apr-18 17:23 33.501000 -117.029341 90 30047ft 529kts
30-Apr-18 17:24 33.499005 -116.852154 91 30945ft 531kts
30-Apr-18 17:25 33.496791 -116.676483 91 30920ft 528kts
30-Apr-18 17:26 33.493603 -116.500266 92 30898ft 528kts
30-Apr-18 17:27 33.490889 -116.324365 91 30835ft 529kts
30-Apr-18 17:28 33.488036 -116.148470 91 30805ft 529kts
30-Apr-18 17:29 33.500965 -115.973208 72 30799ft 527kts
30-Apr-18 17:30 33.551822 -115.809238 67 30807ft 526kts
30-Apr-18 17:31 33.599938 -115.643937 67 30807ft 525kts
30-Apr-18 17:32 33.627818 -115.472588 92 30798ft 528kts
30-Apr-18 17:33 33.620212 -115.362567 96 30792ft 527kts
30-Apr-18 17:34 33.616068 -115.302837 95 30793ft 527kts
30-Apr-18 17:35 33.640823 -115.144132 44 29960ft 466kts
30-Apr-18 17:36 33.724631 -115.037048 39 29114ft 422kts
30-Apr-18 17:37 33.803549 -114.938420 36 27989ft 397kts
30-Apr-18 17:38 33.879316 -114.845934 36 26764ft 382kts
30-Apr-18 17:39 33.950507 -114.759948 36 25560ft 370kts
30-Apr-18 17:40 34.022882 -114.673778 36 24306ft 359kts
30-Apr-18 17:41 34.093954 -114.591462 36 23064ft 350kts
30-Apr-18 17:42 34.124795 -114.477333 104 22987ft 416kts
30-Apr-18 17:43 34.047840 -114.378270 164 23027ft 428kts
30-Apr-18 17:44 33.934800 -114.320656 164 23713ft 449kts
30-Apr-18 17:45 33.817574 -114.261210 164 24776ft 462kts
30-Apr-18 17:46 33.699769 -114.201334 164 24781ft 456kts
30-Apr-18 17:47 33.588696 -114.145221 165 24790ft 424kts
30-Apr-18 17:48 33.482070 -114.083011 144 24784ft 445kts
30-Apr-18 17:49 33.434644 -113.945126 101 23810ft 460kts
30-Apr-18 17:50 33.406206 -113.798252 106 22272ft 444kts
30-Apr-18 17:51 33.377385 -113.656926 106 20815ft 431kts
30-Apr-18 17:52 33.352924 -113.537396 106 19630ft 419kts
30-Apr-18 17:53 33.326612 -113.402522 103 18809ft 413kts
30-Apr-18 17:54 33.310432 -113.305695 104 18805ft 413kts
30-Apr-18 17:55 33.289739 -113.178624 101 18807ft 414kts
30-Apr-18 17:56 33.274129 -113.043419 92 18805ft 401kts
30-Apr-18 17:57 33.277739 -112.929627 90 18241ft 369kts
30-Apr-18 17:58 33.280600 -112.819164 89 16758ft 369kts
30-Apr-18 17:59 33.291676 -112.699466 84 15648ft 356kts
30-Apr-18 18:00 33.302893 -112.584241 85 14385ft 342kts
30-Apr-18 18:01 33.313141 -112.473190 86 13574ft 324kts
30-Apr-18 18:02 33.322605 -112.369108 86 11972ft 320kts
30-Apr-18 18:03 33.331704 -112.270342 86 11284ft 273kts
30-Apr-18 18:04 33.339728 -112.181182 86 9932ft 265kts
30-Apr-18 18:05 33.347385 -112.094858 87 9021ft 258kts
30-Apr-18 18:06 33.346768 -112.008188 93 7782ft 257kts
30-Apr-18 18:07 33.345640 -111.924039 93 6973ft 249kts
30-Apr-18 18:08 33.345569 -111.840374 93 6984ft 254kts
30-Apr-18 18:09 33.345556 -111.756145 93 6990ft 252kts
30-Apr-18 18:10 33.356844 -111.675787 40 6894ft 260kts
30-Apr-18 18:11 33.415289 -111.693164 293 5466ft 230kts
30-Apr-18 18:12 33.429358 -111.761538 264 4973ft 185kts
30-Apr-18 18:13 33.428780 -111.811741 264 4152ft 126kts
30-Apr-18 18:14 33.428764 -111.855320 264 3496ft 133kts
30-Apr-18 18:15 33.428786 -111.898975 264 2798ft 130kts
30-Apr-18 18:16 33.428808 -111.941446 266 2121ft 127kts
30-Apr-18 18:17 33.428861 -111.979724 267 1520ft 126kts
30-Apr-18 18:18 33.428834 -112.015445 269 1143ft 24kts
30-Apr-18 18:19 33.429604 -112.016560 0 1143ft 0kts
30-Apr-18 18:20 33.430199 -112.016321 36 1143ft 14kts
30-Apr-18 18:21 33.431791 -112.016166 320 1143ft 0kts
30-Apr-18 18:22 33.432714 -112.017669 7 1143ft 11kts
30-Apr-18 18:23 33.433491 -112.014426 80 1143ft 4kts

Navigation Log

Ident Type
Flight plan parsing failed, navigation log unavailable